sensor_id;sensor_type;location;lat;lon;timestamp;pressure;altitude;pressure_sealevel;temperature;humidity
74631;BME280;63138;55.082;38.804;2024-01-06T00:00:40;99571.59;;;-21.10;100.00
74631;BME280;63138;55.082;38.804;2024-01-06T00:03:06;99568.19;;;-21.11;100.00
74631;BME280;63138;55.082;38.804;2024-01-06T00:05:32;99566.53;;;-21.03;100.00
74631;BME280;63138;55.082;38.804;2024-01-06T00:07:58;99563.97;;;-20.95;100.00
74631;BME280;63138;55.082;38.804;2024-01-06T00:10:25;99564.00;;;-20.87;100.00
74631;BME280;63138;55.082;38.804;2024-01-06T00:12:53;99552.84;;;-20.82;100.00
74631;BME280;63138;55.082;38.804;2024-01-06T00:15:18;99544.28;;;-20.76;100.00
74631;BME280;63138;55.082;38.804;2024-01-06T00:17:45;99538.28;;;-20.73;100.00
74631;BME280;63138;55.082;38.804;2024-01-06T00:20:12;99535.69;;;-20.73;100.00
74631;BME280;63138;55.082;38.804;2024-01-06T00:22:38;99524.47;;;-20.78;100.00
74631;BME280;63138;55.082;38.804;2024-01-06T00:25:04;99525.34;;;-20.76;100.00
74631;BME280;63138;55.082;38.804;2024-01-06T00:27:31;99527.94;;;-20.76;100.00
74631;BME280;63138;55.082;38.804;2024-01-06T00:29:57;99525.38;;;-20.72;100.00
74631;BME280;63138;55.082;38.804;2024-01-06T00:32:22;99526.25;;;-20.65;100.00
74631;BME280;63138;55.082;38.804;2024-01-06T00:34:49;99522.78;;;-20.58;100.00
74631;BME280;63138;55.082;38.804;2024-01-06T00:37:15;99531.47;;;-20.47;100.00
74631;BME280;63138;55.082;38.804;2024-01-06T00:39:41;99527.97;;;-20.55;100.00
74631;BME280;63138;55.082;38.804;2024-01-06T00:42:07;99525.41;;;-20.47;100.00
74631;BME280;63138;55.082;38.804;2024-01-06T00:44:35;99528.00;;;-20.52;100.00
74631;BME280;63138;55.082;38.804;2024-01-06T00:47:01;99525.41;;;-20.52;100.00
74631;BME280;63138;55.082;38.804;2024-01-06T00:49:28;99533.16;;;-20.63;100.00
74631;BME280;63138;55.082;38.804;2024-01-06T00:51:53;99540.88;;;-20.67;100.00
74631;BME280;63138;55.082;38.804;2024-01-06T00:54:19;99525.41;;;-20.61;100.00
74631;BME280;63138;55.082;38.804;2024-01-06T00:56:45;99527.13;;;-20.54;100.00
74631;BME280;63138;55.082;38.804;2024-01-06T00:59:11;99532.28;;;-20.63;100.00
74631;BME280;63138;55.082;38.804;2024-01-06T01:01:37;99530.56;;;-20.55;100.00
74631;BME280;63138;55.082;38.804;2024-01-06T01:04:03;99536.56;;;-20.68;100.00
74631;BME280;63138;55.082;38.804;2024-01-06T01:06:29;99535.69;;;-20.75;100.00
74631;BME280;63138;55.082;38.804;2024-01-06T01:08:55;99527.91;;;-20.83;100.00
74631;BME280;63138;55.082;38.804;2024-01-06T01:11:21;99521.88;;;-20.86;100.00
74631;BME280;63138;55.082;38.804;2024-01-06T01:13:47;99525.31;;;-20.86;100.00
74631;BME280;63138;55.082;38.804;2024-01-06T01:16:13;99521.00;;;-20.84;100.00
74631;BME280;63138;55.082;38.804;2024-01-06T01:18:39;99514.16;;;-20.78;100.00
74631;BME280;63138;55.082;38.804;2024-01-06T01:21:05;99511.56;;;-20.72;100.00
74631;BME280;63138;55.082;38.804;2024-01-06T01:23:31;99516.78;;;-20.68;100.00
74631;BME280;63138;55.082;38.804;2024-01-06T01:25:57;99515.09;;;-20.61;100.00
74631;BME280;63138;55.082;38.804;2024-01-06T01:28:22;99511.59;;;-20.58;100.00
74631;BME280;63138;55.082;38.804;2024-01-06T01:30:49;99529.69;;;-20.57;100.00
74631;BME280;63138;55.082;38.804;2024-01-06T01:33:14;99545.19;;;-20.57;100.00
74631;BME280;63138;55.082;38.804;2024-01-06T01:35:40;99544.31;;;-20.54;100.00
74631;BME280;63138;55.082;38.804;2024-01-06T01:38:07;99540.88;;;-20.55;100.00
74631;BME280;63138;55.082;38.804;2024-01-06T01:40:33;99543.47;;;-20.55;100.00
74631;BME280;63138;55.082;38.804;2024-01-06T01:42:59;99546.94;;;-20.44;100.00
74631;BME280;63138;55.082;38.804;2024-01-06T01:45:25;99546.94;;;-20.45;100.00
74631;BME280;63138;55.082;38.804;2024-01-06T01:47:52;99553.88;;;-20.39;100.00
74631;BME280;63138;55.082;38.804;2024-01-06T01:50:18;99552.13;;;-20.42;100.00
74631;BME280;63138;55.082;38.804;2024-01-06T01:52:46;99541.81;;;-20.40;100.00
74631;BME280;63138;55.082;38.804;2024-01-06T01:55:12;99553.00;;;-20.40;100.00
74631;BME280;63138;55.082;38.804;2024-01-06T01:57:38;99551.28;;;-20.43;100.00
74631;BME280;63138;55.082;38.804;2024-01-06T02:00:04;99555.56;;;-20.42;100.00
74631;BME280;63138;55.082;38.804;2024-01-06T02:02:38;99558.19;;;-20.34;100.00
74631;BME280;63138;55.082;38.804;2024-01-06T02:05:04;99559.06;;;-20.27;100.00
74631;BME280;63138;55.082;38.804;2024-01-06T02:07:30;99551.34;;;-20.23;100.00
74631;BME280;63138;55.082;38.804;2024-01-06T02:09:56;99555.66;;;-20.17;100.00
74631;BME280;63138;55.082;38.804;2024-01-06T02:12:22;99556.53;;;-20.13;100.00
74631;BME280;63138;55.082;38.804;2024-01-06T02:14:48;99561.66;;;-20.16;100.00
74631;BME280;63138;55.082;38.804;2024-01-06T02:17:14;99548.78;;;-20.12;100.00
74631;BME280;63138;55.082;38.804;2024-01-06T02:19:40;99563.41;;;-20.17;100.00
74631;BME280;63138;55.082;38.804;2024-01-06T02:22:06;99559.09;;;-20.19;100.00
74631;BME280;63138;55.082;38.804;2024-01-06T02:24:32;99548.78;;;-20.12;100.00
74631;BME280;63138;55.082;38.804;2024-01-06T02:26:58;99553.94;;;-20.06;100.00
74631;BME280;63138;55.082;38.804;2024-01-06T02:29:23;99551.38;;;-20.10;100.00
74631;BME280;63138;55.082;38.804;2024-01-06T02:31:49;99557.41;;;-20.07;100.00
74631;BME280;63138;55.082;38.804;2024-01-06T02:34:15;99553.06;;;-20.09;100.00
74631;BME280;63138;55.082;38.804;2024-01-06T02:36:41;99553.09;;;-20.05;100.00
74631;BME280;63138;55.082;38.804;2024-01-06T02:39:07;99555.69;;;-19.97;100.00
74631;BME280;63138;55.082;38.804;2024-01-06T02:41:33;99553.97;;;-19.95;100.00
74631;BME280;63138;55.082;38.804;2024-01-06T02:43:59;99551.41;;;-19.98;100.00
74631;BME280;63138;55.082;38.804;2024-01-06T02:46:28;99553.97;;;-19.99;100.00
74631;BME280;63138;55.082;38.804;2024-01-06T02:48:54;99541.91;;;-20.00;100.00
74631;BME280;63138;55.082;38.804;2024-01-06T02:51:20;99536.72;;;-20.00;100.00
74631;BME280;63138;55.082;38.804;2024-01-06T02:53:46;99531.56;;;-19.96;100.00
74631;BME280;63138;55.082;38.804;2024-01-06T02:56:12;99529.84;;;-19.88;100.00
74631;BME280;63138;55.082;38.804;2024-01-06T02:58:39;99538.50;;;-19.86;100.00
74631;BME280;63138;55.082;38.804;2024-01-06T03:01:05;99537.63;;;-19.85;100.00
74631;BME280;63138;55.082;38.804;2024-01-06T03:03:31;99541.94;;;-19.82;100.00
74631;BME280;63138;55.082;38.804;2024-01-06T03:05:58;99537.63;;;-19.83;100.00
74631;BME280;63138;55.082;38.804;2024-01-06T03:08:24;99529.84;;;-19.77;100.00
74631;BME280;63138;55.082;38.804;2024-01-06T03:10:50;99535.03;;;-19.75;100.00
74631;BME280;63138;55.082;38.804;2024-01-06T03:13:16;99543.69;;;-19.75;100.00
74631;BME280;63138;55.082;38.804;2024-01-06T03:15:41;99537.56;;;-19.68;100.00
74631;BME280;63138;55.082;38.804;2024-01-06T03:18:07;99535.00;;;-19.72;100.00
74631;BME280;63138;55.082;38.804;2024-01-06T03:20:34;99538.44;;;-19.70;100.00
74631;BME280;63138;55.082;38.804;2024-01-06T03:23:00;99532.47;;;-19.78;100.00
74631;BME280;63138;55.082;38.804;2024-01-06T03:25:26;99535.91;;;-19.75;100.00
74631;BME280;63138;55.082;38.804;2024-01-06T03:27:52;99535.00;;;-19.71;100.00
74631;BME280;63138;55.082;38.804;2024-01-06T03:30:17;99525.53;;;-19.70;100.00
74631;BME280;63138;55.082;38.804;2024-01-06T03:32:43;99519.47;;;-19.65;100.00
74631;BME280;63138;55.082;38.804;2024-01-06T03:35:09;99520.34;;;-19.56;100.00
74631;BME280;63138;55.082;38.804;2024-01-06T03:37:36;99520.34;;;-19.56;100.00
74631;BME280;63138;55.082;38.804;2024-01-06T03:40:02;99530.69;;;-19.59;100.00
74631;BME280;63138;55.082;38.804;2024-01-06T03:42:30;99531.56;;;-19.63;100.00
74631;BME280;63138;55.082;38.804;2024-01-06T03:44:56;99534.16;;;-19.65;100.00
74631;BME280;63138;55.082;38.804;2024-01-06T03:47:22;99537.59;;;-19.66;100.00
74631;BME280;63138;55.082;38.804;2024-01-06T03:49:48;99535.00;;;-19.71;100.00
74631;BME280;63138;55.082;38.804;2024-01-06T03:52:14;99547.06;;;-19.70;100.00
74631;BME280;63138;55.082;38.804;2024-01-06T03:54:40;99539.31;;;-19.63;100.00
74631;BME280;63138;55.082;38.804;2024-01-06T03:57:06;99541.03;;;-19.62;100.00
74631;BME280;63138;55.082;38.804;2024-01-06T03:59:32;99550.53;;;-19.58;100.00
74631;BME280;63138;55.082;38.804;2024-01-06T04:01:58;99548.81;;;-19.58;100.00
74631;BME280;63138;55.082;38.804;2024-01-06T04:04:24;99557.44;;;-19.51;100.00
74631;BME280;63138;55.082;38.804;2024-01-06T04:06:50;99556.56;;;-19.50;100.00
74631;BME280;63138;55.082;38.804;2024-01-06T04:09:16;99561.75;;;-19.50;100.00
74631;BME280;63138;55.082;38.804;2024-01-06T04:11:42;99553.13;;;-19.48;100.00
74631;BME280;63138;55.082;38.804;2024-01-06T04:14:08;99556.56;;;-19.47;100.00
74631;BME280;63138;55.082;38.804;2024-01-06T04:16:34;99559.16;;;-19.50;100.00
74631;BME280;63138;55.082;38.804;2024-01-06T04:19:00;99548.81;;;-19.47;100.00
74631;BME280;63138;55.082;38.804;2024-01-06T04:21:26;99543.66;;;-19.44;100.00
74631;BME280;63138;55.082;38.804;2024-01-06T04:23:52;99553.97;;;-19.47;100.00
74631;BME280;63138;55.082;38.804;2024-01-06T04:26:18;99552.25;;;-19.40;100.00
74631;BME280;63138;55.082;38.804;2024-01-06T04:28:44;99540.19;;;-19.40;100.00
74631;BME280;63138;55.082;38.804;2024-01-06T04:31:10;99547.94;;;-19.38;100.00
74631;BME280;63138;55.082;38.804;2024-01-06T04:33:37;99560.03;;;-19.33;100.00
74631;BME280;63138;55.082;38.804;2024-01-06T04:36:03;99557.44;;;-19.31;100.00
74631;BME280;63138;55.082;38.804;2024-01-06T04:38:30;99563.44;;;-19.34;100.00
74631;BME280;63138;55.082;38.804;2024-01-06T04:40:56;99572.06;;;-19.30;100.00
74631;BME280;63138;55.082;38.804;2024-01-06T04:43:22;99572.94;;;-19.36;100.00
74631;BME280;63138;55.082;38.804;2024-01-06T04:45:48;99581.56;;;-19.34;100.00
74631;BME280;63138;55.082;38.804;2024-01-06T04:48:15;99577.28;;;-19.33;100.00
74631;BME280;63138;55.082;38.804;2024-01-06T04:50:41;99583.31;;;-19.33;100.00
74631;BME280;63138;55.082;38.804;2024-01-06T04:53:07;99579.84;;;-19.32;100.00
74631;BME280;63138;55.082;38.804;2024-01-06T04:55:33;99583.31;;;-19.33;100.00
74631;BME280;63138;55.082;38.804;2024-01-06T04:58:00;99579.88;;;-19.33;100.00
74631;BME280;63138;55.082;38.804;2024-01-06T05:00:25;99579.00;;;-19.29;100.00
74631;BME280;63138;55.082;38.804;2024-01-06T05:02:51;99578.13;;;-19.25;100.00
74631;BME280;63138;55.082;38.804;2024-01-06T05:05:17;99585.03;;;-19.22;100.00
74631;BME280;63138;55.082;38.804;2024-01-06T05:07:43;99594.53;;;-19.28;100.00
74631;BME280;63138;55.082;38.804;2024-01-06T05:10:09;99579.88;;;-19.22;100.00
74631;BME280;63138;55.082;38.804;2024-01-06T05:12:35;99588.47;;;-19.27;100.00
74631;BME280;63138;55.082;38.804;2024-01-06T05:15:01;99580.72;;;-19.20;100.00
74631;BME280;63138;55.082;38.804;2024-01-06T05:17:30;99579.84;;;-19.19;100.00
74631;BME280;63138;55.082;38.804;2024-01-06T05:19:56;99577.25;;;-19.21;100.00
74631;BME280;63138;55.082;38.804;2024-01-06T05:22:22;99582.44;;;-19.19;100.00
74631;BME280;63138;55.082;38.804;2024-01-06T05:24:48;99572.09;;;-19.13;100.00
74631;BME280;63138;55.082;38.804;2024-01-06T05:27:14;99571.22;;;-19.09;100.00
74631;BME280;63138;55.082;38.804;2024-01-06T05:29:40;99577.25;;;-19.05;100.00
74631;BME280;63138;55.082;38.804;2024-01-06T05:32:06;99567.75;;;-19.07;100.00
74631;BME280;63138;55.082;38.804;2024-01-06T05:34:32;99567.75;;;-19.07;100.00
74631;BME280;63138;55.082;38.804;2024-01-06T05:36:58;99580.69;;;-19.02;100.00
74631;BME280;63138;55.082;38.804;2024-01-06T05:39:24;99573.81;;;-19.06;100.00
74631;BME280;63138;55.082;38.804;2024-01-06T05:41:51;99572.94;;;-19.14;100.00
74631;BME280;63138;55.082;38.804;2024-01-06T05:44:16;99586.72;;;-19.14;100.00
74631;BME280;63138;55.082;38.804;2024-01-06T05:46:42;99596.22;;;-19.16;100.00
74631;BME280;63138;55.082;38.804;2024-01-06T05:49:08;99597.97;;;-19.13;100.00
74631;BME280;63138;55.082;38.804;2024-01-06T05:51:36;99597.09;;;-19.09;100.00
74631;BME280;63138;55.082;38.804;2024-01-06T05:54:02;99595.34;;;-19.10;100.00
74631;BME280;63138;55.082;38.804;2024-01-06T05:56:28;99597.06;;;-19.03;100.00
74631;BME280;63138;55.082;38.804;2024-01-06T05:58:55;99596.19;;;-18.96;100.00
74631;BME280;63138;55.082;38.804;2024-01-06T06:01:21;99593.63;;;-18.93;100.00
74631;BME280;63138;55.082;38.804;2024-01-06T06:03:47;99596.22;;;-18.88;100.00
74631;BME280;63138;55.082;38.804;2024-01-06T06:06:13;99601.41;;;-18.88;100.00
74631;BME280;63138;55.082;38.804;2024-01-06T06:08:42;99603.09;;;-18.84;100.00
74631;BME280;63138;55.082;38.804;2024-01-06T06:11:08;99600.50;;;-18.82;100.00
74631;BME280;63138;55.082;38.804;2024-01-06T06:13:40;99596.13;;;-18.73;100.00
74631;BME280;63138;55.082;38.804;2024-01-06T06:16:08;99604.78;;;-18.74;100.00
74631;BME280;63138;55.082;38.804;2024-01-06T06:18:34;99610.81;;;-18.73;100.00
74631;BME280;63138;55.082;38.804;2024-01-06T06:21:01;99608.25;;;-18.69;100.00
74631;BME280;63138;55.082;38.804;2024-01-06T06:23:33;99606.50;;;-18.66;100.00
74631;BME280;63138;55.082;38.804;2024-01-06T06:25:59;99610.81;;;-18.58;100.00
74631;BME280;63138;55.082;38.804;2024-01-06T06:28:30;99612.50;;;-18.57;100.00
74631;BME280;63138;55.082;38.804;2024-01-06T06:30:56;99612.50;;;-18.51;100.00
74631;BME280;63138;55.082;38.804;2024-01-06T06:33:22;99616.81;;;-18.45;100.00
74631;BME280;63138;55.082;38.804;2024-01-06T06:35:48;99609.03;;;-18.50;100.00
74631;BME280;63138;55.082;38.804;2024-01-06T06:38:14;99621.09;;;-18.39;100.00
74631;BME280;63138;55.082;38.804;2024-01-06T06:40:40;99617.63;;;-18.35;100.00
74631;BME280;63138;55.082;38.804;2024-01-06T06:43:07;99616.75;;;-18.31;100.00
74631;BME280;63138;55.082;38.804;2024-01-06T06:45:33;99621.91;;;-18.26;100.00
74631;BME280;63138;55.082;38.804;2024-01-06T06:47:59;99627.97;;;-18.27;100.00
74631;BME280;63138;55.082;38.804;2024-01-06T06:50:25;99608.09;;;-18.32;100.00
74631;BME280;63138;55.082;38.804;2024-01-06T06:52:52;99622.78;;;-18.23;100.00
74631;BME280;63138;55.082;38.804;2024-01-06T06:55:18;99627.06;;;-18.19;100.00
74631;BME280;63138;55.082;38.804;2024-01-06T06:57:45;99624.50;;;-18.28;100.00
74631;BME280;63138;55.082;38.804;2024-01-06T07:00:11;99621.91;;;-18.26;100.00
74631;BME280;63138;55.082;38.804;2024-01-06T07:02:37;99627.09;;;-18.31;100.00
74631;BME280;63138;55.082;38.804;2024-01-06T07:05:04;99624.50;;;-18.25;100.00
74631;BME280;63138;55.082;38.804;2024-01-06T07:07:35;99620.19;;;-18.24;100.00
74631;BME280;63138;55.082;38.804;2024-01-06T07:10:02;99630.53;;;-18.21;100.00
74631;BME280;63138;55.082;38.804;2024-01-06T07:12:30;99633.09;;;-18.14;100.00
74631;BME280;63138;55.082;38.804;2024-01-06T07:14:56;99641.72;;;-18.05;100.00
74631;BME280;63138;55.082;38.804;2024-01-06T07:17:22;99647.72;;;-17.94;100.00
74631;BME280;63138;55.082;38.804;2024-01-06T07:19:48;99645.97;;;-17.89;100.00
74631;BME280;63138;55.082;38.804;2024-01-06T07:22:14;99640.78;;;-17.89;100.00
74631;BME280;63138;55.082;38.804;2024-01-06T07:24:42;99650.06;;;-17.51;100.00
74631;BME280;63138;55.082;38.804;2024-01-06T07:27:08;99650.19;;;-16.61;100.00
74631;BME280;63138;55.082;38.804;2024-01-06T07:29:34;99647.06;;;-16.12;100.00
74631;BME280;63138;55.082;38.804;2024-01-06T07:32:00;99645.25;;;-16.05;100.00
74631;BME280;63138;55.082;38.804;2024-01-06T07:34:25;99649.91;;;-15.65;100.00
74631;BME280;63138;55.082;38.804;2024-01-06T07:36:56;99652.19;;;-15.39;100.00
74631;BME280;63138;55.082;38.804;2024-01-06T07:39:23;99650.13;;;-14.66;100.00
74631;BME280;63138;55.082;38.804;2024-01-06T07:41:50;99640.03;;;-14.36;100.00
74631;BME280;63138;55.082;38.804;2024-01-06T07:44:17;99637.84;;;-14.14;100.00
74631;BME280;63138;55.082;38.804;2024-01-06T07:46:51;99634.06;;;-13.97;100.00
74631;BME280;63138;55.082;38.804;2024-01-06T07:49:18;99640.09;;;-13.53;100.00
74631;BME280;63138;55.082;38.804;2024-01-06T07:51:44;99635.69;;;-13.50;100.00
74631;BME280;63138;55.082;38.804;2024-01-06T07:54:10;99629.38;;;-13.39;100.00
74631;BME280;63138;55.082;38.804;2024-01-06T07:56:37;99635.63;;;-13.47;100.00
74631;BME280;63138;55.082;38.804;2024-01-06T07:59:04;99630.06;;;-13.33;100.00
74631;BME280;63138;55.082;38.804;2024-01-06T08:01:30;99629.28;;;-13.38;100.00
74631;BME280;63138;55.082;38.804;2024-01-06T08:03:57;99625.25;;;-12.78;100.00
74631;BME280;63138;55.082;38.804;2024-01-06T08:06:24;99626.56;;;-13.32;100.00
74631;BME280;63138;55.082;38.804;2024-01-06T08:08:51;99630.19;;;-13.79;100.00
74631;BME280;63138;55.082;38.804;2024-01-06T08:11:18;99635.41;;;-14.21;100.00
74631;BME280;63138;55.082;38.804;2024-01-06T08:13:44;99637.59;;;-14.47;100.00
74631;BME280;63138;55.082;38.804;2024-01-06T08:16:10;99648.63;;;-14.79;100.00
74631;BME280;63138;55.082;38.804;2024-01-06T08:18:36;99632.56;;;-15.07;100.00
74631;BME280;63138;55.082;38.804;2024-01-06T08:21:02;99638.72;;;-15.10;100.00
74631;BME280;63138;55.082;38.804;2024-01-06T08:23:28;99641.16;;;-15.01;100.00
74631;BME280;63138;55.082;38.804;2024-01-06T08:25:54;99634.31;;;-15.08;100.00
74631;BME280;63138;55.082;38.804;2024-01-06T08:28:20;99628.38;;;-15.16;100.00
74631;BME280;63138;55.082;38.804;2024-01-06T08:30:49;99626.81;;;-15.26;100.00
74631;BME280;63138;55.082;38.804;2024-01-06T08:33:16;99626.03;;;-15.33;100.00
74631;BME280;63138;55.082;38.804;2024-01-06T08:35:45;99625.06;;;-15.27;100.00
74631;BME280;63138;55.082;38.804;2024-01-06T08:38:12;99618.81;;;-15.15;100.00
74631;BME280;63138;55.082;38.804;2024-01-06T08:40:38;99623.28;;;-15.25;100.00
74631;BME280;63138;55.082;38.804;2024-01-06T08:43:04;99623.22;;;-15.19;100.00
74631;BME280;63138;55.082;38.804;2024-01-06T08:45:33;99619.78;;;-15.21;100.00
74631;BME280;63138;55.082;38.804;2024-01-06T08:47:59;99618.06;;;-15.22;100.00
74631;BME280;63138;55.082;38.804;2024-01-06T08:50:25;99613.53;;;-15.11;100.00
74631;BME280;63138;55.082;38.804;2024-01-06T08:52:51;99606.97;;;-15.36;100.00
74631;BME280;63138;55.082;38.804;2024-01-06T08:55:20;99605.34;;;-15.44;100.00
74631;BME280;63138;55.082;38.804;2024-01-06T08:57:47;99609.72;;;-15.46;100.00
74631;BME280;63138;55.082;38.804;2024-01-06T09:00:15;99610.53;;;-15.41;100.00
74631;BME280;63138;55.082;38.804;2024-01-06T09:02:43;99611.47;;;-15.46;100.00
74631;BME280;63138;55.082;38.804;2024-01-06T09:05:09;99604.66;;;-15.53;100.00
74631;BME280;63138;55.082;38.804;2024-01-06T09:07:35;99601.16;;;-15.55;100.00
74631;BME280;63138;55.082;38.804;2024-01-06T09:10:02;99598.38;;;-15.42;100.00
74631;BME280;63138;55.082;38.804;2024-01-06T09:12:29;99588.22;;;-15.57;100.00
74631;BME280;63138;55.082;38.804;2024-01-06T09:14:59;99586.69;;;-15.73;100.00
74631;BME280;63138;55.082;38.804;2024-01-06T09:17:25;99588.53;;;-15.79;100.00
74631;BME280;63138;55.082;38.804;2024-01-06T09:19:51;99582.94;;;-15.54;100.00
74631;BME280;63138;55.082;38.804;2024-01-06T09:22:20;99582.06;;;-15.54;100.00
74631;BME280;63138;55.082;38.804;2024-01-06T09:24:52;99582.78;;;-15.45;100.00
74631;BME280;63138;55.082;38.804;2024-01-06T09:27:19;99587.88;;;-15.35;100.00
74631;BME280;63138;55.082;38.804;2024-01-06T09:29:47;99595.97;;;-15.55;100.00
74631;BME280;63138;55.082;38.804;2024-01-06T09:32:23;99602.91;;;-15.54;100.00
74631;BME280;63138;55.082;38.804;2024-01-06T09:34:49;99595.81;;;-15.45;100.00
74631;BME280;63138;55.082;38.804;2024-01-06T09:37:18;99587.00;;;-15.36;100.00
74631;BME280;63138;55.082;38.804;2024-01-06T09:39:44;99583.34;;;-15.24;100.00
74631;BME280;63138;55.082;38.804;2024-01-06T09:42:11;99583.41;;;-15.27;100.00
74631;BME280;63138;55.082;38.804;2024-01-06T09:44:39;99586.13;;;-15.35;100.00
74631;BME280;63138;55.082;38.804;2024-01-06T09:47:10;99581.88;;;-15.41;100.00
74631;BME280;63138;55.082;38.804;2024-01-06T09:49:48;99578.16;;;-15.26;100.00
74631;BME280;63138;55.082;38.804;2024-01-06T09:52:22;99581.72;;;-15.31;100.00
74631;BME280;63138;55.082;38.804;2024-01-06T09:54:53;99567.91;;;-15.36;100.00
74631;BME280;63138;55.082;38.804;2024-01-06T09:57:21;99569.22;;;-15.11;100.00
74631;BME280;63138;55.082;38.804;2024-01-06T09:59:47;99560.41;;;-15.04;100.00
74631;BME280;63138;55.082;38.804;2024-01-06T10:02:16;99558.81;;;-15.11;100.00
74631;BME280;63138;55.082;38.804;2024-01-06T10:04:44;99556.19;;;-15.11;100.00
74631;BME280;63138;55.082;38.804;2024-01-06T10:07:19;99558.91;;;-15.15;100.00
74631;BME280;63138;55.082;38.804;2024-01-06T10:09:46;99553.56;;;-15.08;100.00
74631;BME280;63138;55.082;38.804;2024-01-06T10:12:13;99561.44;;;-15.12;100.00
74631;BME280;63138;55.082;38.804;2024-01-06T10:14:39;99554.56;;;-15.16;100.00
74631;BME280;63138;55.082;38.804;2024-01-06T10:17:27;99560.59;;;-15.13;100.00
74631;BME280;63138;55.082;38.804;2024-01-06T10:19:53;99554.69;;;-15.24;100.00
74631;BME280;63138;55.082;38.804;2024-01-06T10:22:21;99547.84;;;-15.28;100.00
74631;BME280;63138;55.082;38.804;2024-01-06T10:24:49;99539.03;;;-15.21;100.00
74631;BME280;63138;55.082;38.804;2024-01-06T10:27:22;99538.13;;;-15.20;100.00
74631;BME280;63138;55.082;38.804;2024-01-06T10:29:49;99546.72;;;-15.15;100.00
74631;BME280;63138;55.082;38.804;2024-01-06T10:32:15;99538.00;;;-15.12;100.00
74631;BME280;63138;55.082;38.804;2024-01-06T10:34:42;99549.66;;;-15.35;100.00
74631;BME280;63138;55.082;38.804;2024-01-06T10:37:12;99542.66;;;-15.30;100.00
74631;BME280;63138;55.082;38.804;2024-01-06T10:39:42;99547.94;;;-15.37;100.00
74631;BME280;63138;55.082;38.804;2024-01-06T10:42:08;99541.56;;;-15.18;100.00
74631;BME280;63138;55.082;38.804;2024-01-06T10:44:39;99542.53;;;-15.24;100.00
74631;BME280;63138;55.082;38.804;2024-01-06T10:47:06;99546.38;;;-15.46;100.00
74631;BME280;63138;55.082;38.804;2024-01-06T10:49:33;99530.28;;;-15.18;100.00
74631;BME280;63138;55.082;38.804;2024-01-06T10:52:04;99537.34;;;-15.25;100.00
74631;BME280;63138;55.082;38.804;2024-01-06T10:54:33;99529.53;;;-15.27;100.00
74631;BME280;63138;55.082;38.804;2024-01-06T10:57:02;99528.75;;;-15.30;100.00
74631;BME280;63138;55.082;38.804;2024-01-06T10:59:29;99528.81;;;-15.33;100.00
74631;BME280;63138;55.082;38.804;2024-01-06T11:01:59;99529.69;;;-15.34;100.00
74631;BME280;63138;55.082;38.804;2024-01-06T11:04:26;99526.22;;;-15.35;100.00
74631;BME280;63138;55.082;38.804;2024-01-06T11:06:58;99518.25;;;-15.26;100.00
74631;BME280;63138;55.082;38.804;2024-01-06T11:09:27;99529.94;;;-15.50;100.00
74631;BME280;63138;55.082;38.804;2024-01-06T11:12:16;99518.75;;;-15.56;100.00
74631;BME280;63138;55.082;38.804;2024-01-06T11:14:48;99523.84;;;-15.50;100.00
74631;BME280;63138;55.082;38.804;2024-01-06T11:17:49;99519.41;;;-15.44;100.00
74631;BME280;63138;55.082;38.804;2024-01-06T11:20:27;99532.50;;;-15.48;100.00
74631;BME280;63138;55.082;38.804;2024-01-06T11:23:19;99523.69;;;-15.40;100.00
74631;BME280;63138;55.082;38.804;2024-01-06T11:25:49;99532.66;;;-15.59;100.00
74631;BME280;63138;55.082;38.804;2024-01-06T11:28:44;99519.75;;;-15.65;100.00
74631;BME280;63138;55.082;38.804;2024-01-06T11:31:40;99518.31;;;-15.82;100.00
74631;BME280;63138;55.082;38.804;2024-01-06T11:34:17;99520.97;;;-15.86;100.00
74631;BME280;63138;55.082;38.804;2024-01-06T11:36:48;99524.28;;;-15.75;100.00
74631;BME280;63138;55.082;38.804;2024-01-06T11:39:36;99516.25;;;-15.63;100.00
74631;BME280;63138;55.082;38.804;2024-01-06T11:42:04;99517.75;;;-15.48;100.00
74631;BME280;63138;55.082;38.804;2024-01-06T11:44:34;99524.91;;;-15.61;100.00
74631;BME280;63138;55.082;38.804;2024-01-06T11:47:00;99521.53;;;-15.67;100.00
74631;BME280;63138;55.082;38.804;2024-01-06T11:49:29;99527.78;;;-15.77;100.00
74631;BME280;63138;55.082;38.804;2024-01-06T11:51:59;99532.09;;;-15.75;100.00
74631;BME280;63138;55.082;38.804;2024-01-06T11:54:28;99523.63;;;-15.88;100.00
74631;BME280;63138;55.082;38.804;2024-01-06T11:56:54;99520.13;;;-15.88;100.00
74631;BME280;63138;55.082;38.804;2024-01-06T11:59:22;99518.44;;;-15.89;100.00
74631;BME280;63138;55.082;38.804;2024-01-06T12:01:48;99524.53;;;-15.92;100.00
74631;BME280;63138;55.082;38.804;2024-01-06T12:04:17;99529.75;;;-15.93;100.00
74631;BME280;63138;55.082;38.804;2024-01-06T12:06:46;99519.31;;;-15.92;100.00
74631;BME280;63138;55.082;38.804;2024-01-06T12:09:12;99525.34;;;-15.90;100.00
74631;BME280;63138;55.082;38.804;2024-01-06T12:11:41;99526.28;;;-15.92;100.00
74631;BME280;63138;55.082;38.804;2024-01-06T12:14:12;99521.97;;;-15.95;100.00
74631;BME280;63138;55.082;38.804;2024-01-06T12:16:39;99528.88;;;-15.92;100.00
74631;BME280;63138;55.082;38.804;2024-01-06T12:19:06;99520.22;;;-15.93;100.00
74631;BME280;63138;55.082;38.804;2024-01-06T12:21:33;99518.44;;;-15.91;100.00
74631;BME280;63138;55.082;38.804;2024-01-06T12:24:15;99517.66;;;-15.98;100.00
74631;BME280;63138;55.082;38.804;2024-01-06T12:26:44;99515.91;;;-15.95;100.00
74631;BME280;63138;55.082;38.804;2024-01-06T12:29:10;99514.22;;;-15.98;100.00
74631;BME280;63138;55.082;38.804;2024-01-06T12:31:41;99514.13;;;-15.93;100.00